Time;durP1;ratioP1;P1;durP2;ratioP2;P2;SDS_P1;SDS_P2;PMS_P1;PMS_P2;Temp;Humidity;BMP_temperature;BMP_pressure;BME280_temperature;BME280_humidity;BME280_pressure;Samples;Min_cycle;Max_cycle;Signal;HPM_P1;HPM_P2
2023/01/17 00:02:38;;;;;;;;;6.00;4.00;;;;;13.53;61.47;100254.16;146625;605;46010;-69
2023/01/17 00:11:54;;;;;;;;;5.00;5.00;;;;;13.55;60.50;100257.66;146618;656;46014;-70
2023/01/17 00:14:52;;;;;;;;;6.00;4.00;;;;;13.55;60.62;100252.47;146623;702;46011;-70
2023/01/17 00:17:44;;;;;;;;;4.00;4.00;;;;;13.55;60.86;100253.38;146620;604;46012;-69
2023/01/17 01:34:54;;;;;;;;;3.67;3.00;;;;;13.81;64.79;100156.88;146619;566;46017;-66
2023/01/17 01:37:59;;;;;;;;;3.67;2.67;;;;;11.37;64.21;99733.25;146623;664;46020;-69
2023/01/17 01:41:00;;;;;;;;;4.00;3.00;;;;;13.84;64.03;100165.66;146618;616;46016;-68
2023/01/17 01:44:04;;;;;;;;;6.50;5.25;;;;;13.83;64.44;100165.59;146621;583;46020;-68
2023/01/17 01:47:00;;;;;;;;;3.25;3.25;;;;;13.80;65.05;100161.19;146620;569;46016;-67
2023/01/17 01:49:56;;;;;;;;;2.00;2.00;;;;;13.75;65.38;100165.38;146621;564;46020;-68
2023/01/17 01:53:00;;;;;;;;;5.00;5.00;;;;;13.72;66.12;100167.03;146620;566;46012;-70
2023/01/17 01:55:56;;;;;;;;;4.25;2.50;;;;;13.68;66.44;100171.25;146622;569;46012;-68
2023/01/17 01:59:07;;;;;;;;;1.67;1.67;;;;;11.47;66.06;99769.06;146619;570;46037;-69
2023/01/17 02:02:01;;;;;;;;;5.00;3.00;;;;;13.74;65.77;100148.00;146622;577;46010;-69
2023/01/17 02:04:53;;;;;;;;;3.00;2.00;;;;;13.77;65.17;100147.16;146618;660;46016;-68
2023/01/17 02:08:26;;;;;;;;;2.33;2.33;;;;;11.40;65.28;99761.00;146623;642;46020;-68
2023/01/17 02:11:34;;;;;;;;;2.75;2.75;;;;;11.20;65.72;99730.09;146618;577;46016;-71
2023/01/17 02:14:29;;;;;;;;;2.00;2.00;;;;;13.70;66.43;100164.34;146623;606;46021;-72
2023/01/17 02:18:05;;;;;;;;;3.33;3.33;;;;;11.23;67.51;99729.31;146617;589;46036;-70
2023/01/17 02:21:56;;;;;;;;;3.00;3.00;;;;;10.42;66.85;99595.25;146622;578;46010;-71
2023/01/17 02:25:41;;;;;;;;;3.00;2.33;;;;;11.25;67.63;99725.06;146620;609;46016;-69
2023/01/17 02:29:21;;;;;;;;;2.33;2.00;;;;;13.78;68.33;100167.19;146621;575;46021;-68
2023/01/17 02:32:25;;;;;;;;;3.00;2.00;;;;;13.79;68.71;100172.44;146619;570;46016;-71
2023/01/17 02:36:04;;;;;;;;;1.67;1.67;;;;;11.35;67.10;99752.22;146624;629;46020;-70
2023/01/17 02:39:32;;;;;;;;;2.00;2.00;;;;;11.25;70.73;99745.84;146621;626;46016;-70
2023/01/17 02:42:48;;;;;;;;;3.33;3.00;;;;;13.77;71.11;100171.53;146623;595;46011;-70
2023/01/17 02:45:50;;;;;;;;;5.00;2.33;;;;;13.78;70.49;100168.06;146620;685;46014;-68
2023/01/17 02:48:55;;;;;;;;;2.00;2.00;;;;;13.78;70.89;100165.47;146625;564;45020;-70
2023/01/17 02:52:23;;;;;;;;;2.33;1.33;;;;;13.76;69.58;100163.66;146622;570;46012;-71
2023/01/17 02:55:49;;;;;;;;;2.33;2.00;;;;;13.70;70.64;100160.88;146619;610;46020;-71
2023/01/17 02:59:52;;;;;;;;;4.00;2.67;;;;;11.21;69.50;99725.78;146612;606;48914;-71
2023/01/17 03:03:23;;;;;;;;;2.00;2.00;;;;;13.71;70.48;100134.88;146624;604;46010;-70
2023/01/17 03:06:49;;;;;;;;;1.00;1.00;;;;;11.27;69.80;99713.88;146620;565;46013;-71
2023/01/17 03:09:53;;;;;;;;;2.33;2.33;;;;;13.75;69.12;100151.47;146623;592;46010;-68
2023/01/17 03:13:02;;;;;;;;;1.00;1.00;;;;;13.76;68.79;100143.69;146619;675;46016;-68
2023/01/17 03:16:00;;;;;;;;;1.00;1.00;;;;;13.75;69.22;100139.31;146619;607;46020;-68
2023/01/17 03:19:04;;;;;;;;;6.00;3.00;;;;;13.70;69.91;100130.47;146618;572;46012;-67
2023/01/17 03:21:59;;;;;;;;;2.00;2.00;;;;;13.65;70.01;100137.31;146623;589;45021;-68
2023/01/17 03:24:57;;;;;;;;;2.00;2.00;;;;;13.60;69.91;100131.06;146621;667;46012;-68
2023/01/17 03:28:01;;;;;;;;;2.50;2.50;;;;;13.56;69.20;100126.59;146619;685;46021;-68
2023/01/17 03:31:11;;;;;;;;;3.00;2.33;;;;;13.51;69.26;100144.69;146619;649;46016;-68
2023/01/17 03:34:27;;;;;;;;;3.33;3.00;;;;;13.49;68.99;100161.09;146621;664;46010;-69
2023/01/17 03:37:39;;;;;;;;;1.00;1.00;;;;;13.50;68.83;100152.47;146623;589;45016;-69
2023/01/17 03:40:32;;;;;;;;;3.67;3.67;;;;;13.48;68.64;100156.75;146626;624;45020;-69
2023/01/17 03:43:28;;;;;;;;;4.33;3.00;;;;;13.46;68.71;100145.37;146622;613;46017;-69
2023/01/17 03:46:28;;;;;;;;;4.67;2.67;;;;;13.43;68.45;100141.00;146623;570;46020;-69
2023/01/17 03:49:22;;;;;;;;;8.00;4.00;;;;;13.40;68.71;100146.97;146618;572;46916;-70
2023/01/17 03:52:15;;;;;;;;;5.00;5.00;;;;;13.35;68.04;100142.47;146622;563;46020;-69
2023/01/17 03:55:20;;;;;;;;;3.25;3.25;;;;;13.31;67.42;100151.91;146620;585;46012;-69
2023/01/17 03:58:24;;;;;;;;;3.67;2.67;;;;;13.31;66.93;100141.50;146624;653;46010;-73
2023/01/17 04:01:19;;;;;;;;;5.00;4.00;;;;;13.33;66.12;100137.22;146618;558;46908;-70
2023/01/17 04:04:15;;;;;;;;;2.33;1.00;;;;;13.38;66.01;100134.75;146619;621;47020;-69
2023/01/17 04:07:21;;;;;;;;;1.00;0.67;;;;;13.50;65.47;100152.47;146621;569;46917;-69
2023/01/17 04:10:28;;;;;;;;;1.00;1.00;;;;;13.62;65.10;100156.31;146624;679;46020;-70
2023/01/17 04:13:29;;;;;;;;;3.33;1.67;;;;;13.70;65.14;100153.94;146621;631;46014;-70
2023/01/17 04:16:38;;;;;;;;;4.67;2.00;;;;;13.74;64.87;100153.22;146625;569;46010;-70
2023/01/17 04:19:38;;;;;;;;;4.50;3.25;;;;;13.77;64.68;100147.16;146621;576;46016;-70
2023/01/17 04:22:46;;;;;;;;;3.75;3.25;;;;;13.76;64.80;100133.25;146619;563;46020;-70
2023/01/17 04:25:52;;;;;;;;;7.00;4.00;;;;;13.77;64.27;100145.47;146617;594;46012;-70
2023/01/17 04:28:46;;;;;;;;;2.33;2.00;;;;;13.79;64.11;100141.16;146621;590;46020;-72
2023/01/17 04:31:51;;;;;;;;;3.00;2.00;;;;;11.28;63.75;99701.81;146617;570;46014;-70
2023/01/17 04:34:45;;;;;;;;;4.00;4.00;;;;;13.79;63.33;100143.78;146623;579;46021;-68
2023/01/17 04:37:38;;;;;;;;;3.00;3.00;;;;;13.79;63.37;100127.25;146622;616;46012;-70
2023/01/17 04:40:44;;;;;;;;;0.00;0.00;;;;;13.79;63.26;100127.25;146623;575;46020;-70
2023/01/17 04:43:58;;;;;;;;;2.67;2.00;;;;;11.84;62.99;99778.00;146618;597;46016;-70
2023/01/17 04:46:50;;;;;;;;;2.33;1.00;;;;;13.85;62.73;100125.72;146618;609;46020;-71
2023/01/17 04:50:06;;;;;;;;;4.00;4.00;;;;;13.85;62.82;100124.84;146621;657;46012;-72
2023/01/17 04:53:10;;;;;;;;;4.00;2.00;;;;;13.88;62.05;100118.84;146624;591;46020;-72
2023/01/17 04:56:13;;;;;;;;;2.00;2.00;;;;;13.93;62.59;100115.53;146621;662;46017;-71
2023/01/17 04:59:05;;;;;;;;;4.00;3.00;;;;;13.92;62.27;100125.88;146620;570;46020;-70
2023/01/17 05:02:03;;;;;;;;;4.00;4.00;;;;;13.92;62.05;100128.50;146622;595;46012;-70
2023/01/17 05:04:55;;;;;;;;;2.00;2.00;;;;;13.91;62.21;100137.16;146624;604;46021;-71
2023/01/17 05:08:07;;;;;;;;;2.67;1.67;;;;;13.90;61.79;100133.69;146621;570;46012;-71
2023/01/17 05:11:05;;;;;;;;;3.33;3.00;;;;;13.84;62.26;100113.53;146623;688;45029;-72
2023/01/17 05:14:05;;;;;;;;;4.33;2.00;;;;;13.82;62.01;100112.59;146617;619;46016;-71
2023/01/17 05:17:01;;;;;;;;;1.00;1.00;;;;;13.88;61.23;100143.16;146625;576;46010;-72
2023/01/17 05:20:00;;;;;;;;;2.67;1.33;;;;;13.95;61.61;100165.06;146619;626;46016;-72
2023/01/17 05:22:56;;;;;;;;;2.33;2.00;;;;;13.96;61.39;100159.03;146623;627;46020;-72
2023/01/17 05:25:51;;;;;;;;;4.67;4.00;;;;;14.01;61.73;100155.69;146623;599;45016;-72
2023/01/17 05:28:55;;;;;;;;;5.25;3.25;;;;;11.53;61.15;99730.31;146621;575;46021;-72
2023/01/17 05:31:49;;;;;;;;;4.50;3.50;;;;;14.00;61.63;100153.06;146620;670;46016;-74
2023/01/17 05:34:41;;;;;;;;;1.33;1.00;;;;;14.02;61.54;100157.47;146624;612;46011;-75
2023/01/17 05:37:36;;;;;;;;;4.75;2.00;;;;;14.06;60.76;100148.03;146621;601;46014;-74
2023/01/17 05:40:42;;;;;;;;;4.00;2.75;;;;;14.08;61.41;100180.22;146622;573;46010;-73
2023/01/17 05:43:35;;;;;;;;;12.50;11.75;;;;;14.09;62.43;100174.19;146617;649;46017;-71
2023/01/17 05:46:39;;;;;;;;;;;;;;;;;;;;;
2023/01/17 05:49:47;;;;;;;;;6.00;6.00;;;;;13.95;61.66;100173.75;146620;596;46013;-72
2023/01/17 05:52:39;;;;;;;;;3.50;3.50;;;;;13.95;61.15;100154.66;146624;671;45020;-73
2023/01/17 05:55:48;;;;;;;;;4.00;3.25;;;;;13.97;59.99;100134.72;146618;628;46916;-71
2023/01/17 05:58:41;;;;;;;;;7.00;5.50;;;;;14.08;60.15;100170.69;146622;634;46021;-71
2023/01/17 06:01:34;;;;;;;;;4.67;4.00;;;;;14.20;60.05;100164.91;146619;563;46016;-73
2023/01/17 06:04:38;;;;;;;;;2.00;1.67;;;;;14.26;59.91;100170.28;146624;627;46010;-69
2023/01/17 06:07:30;;;;;;;;;12.00;9.75;;;;;14.30;58.96;100163.47;146619;698;46016;-70
2023/01/17 06:10:27;;;;;;;;;3.00;2.00;;;;;14.36;59.14;100162.72;146623;583;45020;-71
2023/01/17 06:13:33;;;;;;;;;9.00;5.00;;;;;14.41;57.66;100163.75;146611;591;47917;-67
2023/01/17 06:16:29;;;;;;;;;5.00;3.50;;;;;14.50;58.54;100203.13;146623;682;46010;-68
2023/01/17 06:19:21;;;;;;;;;2.00;1.75;;;;;14.54;58.21;100171.06;146617;569;46017;-70
2023/01/17 06:22:28;;;;;;;;;2.00;1.50;;;;;14.59;57.27;100164.25;146620;565;46020;-70
2023/01/17 06:25:33;;;;;;;;;;;;;;;;;;;;;
2023/01/17 06:28:26;;;;;;;;;7.75;3.50;;;;;14.75;57.00;100170.75;146620;569;46012;-72
2023/01/17 06:31:32;;;;;;;;;7.00;5.25;;;;;12.13;56.65;99720.88;146618;602;46012;-75
2023/01/17 06:34:29;;;;;;;;;3.67;3.33;;;;;14.91;57.70;100196.37;146625;564;46011;-76
2023/01/17 06:37:21;;;;;;;;;3.00;2.00;;;;;14.90;57.60;100188.53;146620;569;46016;-75
2023/01/17 06:40:19;;;;;;;;;3.00;3.00;;;;;14.94;56.72;100183.41;146621;585;46020;-71
2023/01/17 06:43:13;;;;;;;;;6.00;6.00;;;;;14.98;57.49;100186.97;146620;604;46012;-74
2023/01/17 06:46:14;;;;;;;;;2.50;2.50;;;;;14.99;56.93;100173.97;146624;602;46010;-70
2023/01/17 06:49:14;;;;;;;;;2.33;2.33;;;;;15.00;56.36;100178.34;146621;607;46016;-74
2023/01/17 06:52:11;;;;;;;;;3.67;3.67;;;;;15.01;55.84;100174.00;146624;652;46020;-74
2023/01/17 06:55:15;;;;;;;;;2.67;2.67;;;;;15.05;55.74;100188.03;146622;565;46012;-74
2023/01/17 06:58:07;;;;;;;;;4.75;4.75;;;;;15.08;55.13;100182.87;146620;619;47010;-71
2023/01/17 07:00:59;;;;;;;;;7.50;4.50;;;;;15.11;54.50;100194.28;146618;599;46014;-72
2023/01/17 07:03:54;;;;;;;;;3.50;3.00;;;;;15.16;55.51;100197.88;146622;596;45030;-74
2023/01/17 07:06:58;;;;;;;;;;;;;;;;;;;;;
2023/01/17 07:10:03;;;;;;;;;7.00;4.00;;;;;15.22;55.85;100212.81;146623;572;46020;-73
2023/01/17 07:13:02;;;;;;;;;5.75;5.75;;;;;15.24;56.05;100211.13;146623;657;46012;-74
2023/01/17 07:15:56;;;;;;;;;14.50;11.00;;;;;15.21;55.85;100211.06;146620;575;46020;-70
2023/01/17 07:18:57;;;;;;;;;6.00;6.00;;;;;15.20;56.76;100218.03;146616;600;46017;-70
2023/01/17 07:22:01;;;;;;;;;7.50;6.50;;;;;15.17;56.17;100215.34;146622;661;46012;-71
2023/01/17 07:24:59;;;;;;;;;3.67;3.67;;;;;15.16;56.14;100221.38;146619;618;46017;-69
2023/01/17 07:27:56;;;;;;;;;34.00;20.25;;;;;15.13;55.70;100213.47;146619;581;46010;-70
2023/01/17 07:30:57;;;;;;;;;18.25;12.25;;;;;15.15;55.96;100214.41;146616;688;46016;-73
2023/01/17 07:33:51;;;;;;;;;3.67;3.33;;;;;15.20;54.82;100212.81;146620;573;46021;-72
2023/01/17 07:36:48;;;;;;;;;20.50;16.75;;;;;15.28;55.99;100222.53;146619;566;46012;-73
2023/01/17 07:39:52;;;;;;;;;6.00;5.25;;;;;15.33;55.37;100226.16;146623;697;46010;-73
2023/01/17 07:42:47;;;;;;;;;3.67;3.33;;;;;15.36;55.11;100219.28;146619;634;46017;-73
2023/01/17 07:45:58;;;;;;;;;2.67;2.67;;;;;15.42;55.29;100215.91;146623;582;46020;-73
2023/01/17 07:49:00;;;;;;;;;5.67;4.33;;;;;13.07;55.86;99817.97;146619;669;46012;-69
2023/01/17 07:51:59;;;;;;;;;3.33;2.00;;;;;15.46;54.59;100230.81;146622;577;46020;-68
2023/01/17 07:54:58;;;;;;;;;3.33;2.00;;;;;15.47;55.17;100229.97;146620;599;46033;-69
2023/01/17 07:57:55;;;;;;;;;5.75;5.00;;;;;15.50;56.04;100248.31;146622;592;46020;-73
2023/01/17 08:01:04;;;;;;;;;2.67;2.67;;;;;15.51;56.46;100252.69;146617;565;46016;-72
2023/01/17 08:03:56;;;;;;;;;3.00;1.67;;;;;15.54;56.26;100244.03;146623;609;46021;-72
2023/01/17 08:07:01;;;;;;;;;;;;;;;;;;;;;
2023/01/17 08:09:56;;;;;;;;;2.67;2.67;;;;;15.59;56.60;100252.88;146619;611;46020;-71
2023/01/17 08:12:57;;;;;;;;;1.67;1.67;;;;;15.59;56.63;100245.94;146620;630;46016;-71
2023/01/17 08:16:02;;;;;;;;;4.00;3.00;;;;;15.62;55.91;100238.16;146624;602;46010;-70
2023/01/17 08:19:10;;;;;;;;;2.67;1.67;;;;;15.65;55.85;100250.41;146621;661;46012;-69
2023/01/17 08:22:15;;;;;;;;;3.33;2.67;;;;;15.68;56.35;100247.91;146622;573;46020;-69
2023/01/17 08:25:11;;;;;;;;;4.00;2.67;;;;;15.72;57.07;100254.97;146622;618;46013;-70
2023/01/17 08:28:18;;;;;;;;;5.00;1.67;;;;;15.75;56.05;100264.59;146624;670;46010;-72
2023/01/17 08:31:21;;;;;;;;;3.00;3.00;;;;;15.76;55.68;100264.63;146620;564;46013;-69
2023/01/17 08:34:14;;;;;;;;;1.67;0.67;;;;;15.75;55.80;100273.34;146621;591;46020;-73
2023/01/17 08:37:14;;;;;;;;;4.00;3.00;;;;;15.80;55.75;100282.19;146620;566;46016;-70
2023/01/17 08:40:28;;;;;;;;;3.00;1.33;;;;;15.82;55.49;100266.50;146622;584;46021;-70
2023/01/17 08:43:25;;;;;;;;;0.33;0.33;;;;;15.86;56.22;100265.75;146621;603;46014;-73
2023/01/17 08:46:22;;;;;;;;;1.67;1.67;;;;;15.88;56.14;100259.69;146620;578;46020;-69
2023/01/17 08:49:20;;;;;;;;;3.00;3.00;;;;;15.91;56.30;100269.34;146620;594;46016;-70
2023/01/17 08:52:16;;;;;;;;;4.33;3.00;;;;;15.93;56.69;100284.22;146626;606;46010;-72
2023/01/17 08:55:27;;;;;;;;;5.50;4.25;;;;;15.96;56.57;100266.84;146620;585;46013;-72
2023/01/17 08:58:26;;;;;;;;;6.33;3.67;;;;;15.97;56.47;100258.13;146622;570;46020;-70
2023/01/17 09:01:22;;;;;;;;;5.00;3.33;;;;;15.98;55.90;100250.34;146622;576;46016;-71
2023/01/17 09:04:26;;;;;;;;;6.50;3.00;;;;;16.00;57.29;100246.00;146627;568;46010;-71
2023/01/17 09:07:23;;;;;;;;;15.25;15.00;;;;;16.02;55.68;100241.69;146617;632;46016;-71
2023/01/17 09:10:29;;;;;;;;;3.00;3.00;;;;;13.74;55.51;99847.50;146625;604;46010;-69
2023/01/17 09:13:48;;;;;;;;;6.67;5.00;;;;;16.07;56.26;100234.81;146621;633;46012;-72
2023/01/17 09:16:42;;;;;;;;;12.25;7.25;;;;;16.12;55.96;100235.81;146622;572;46011;-70
2023/01/17 09:19:37;;;;;;;;;13.25;7.25;;;;;16.15;56.30;100248.94;146616;617;46016;-70
2023/01/17 09:22:32;;;;;;;;;4.00;2.00;;;;;16.20;55.03;100245.53;146624;591;45020;-71
2023/01/17 09:25:30;;;;;;;;;3.00;3.00;;;;;16.23;55.70;100241.28;146619;605;46016;-70
2023/01/17 09:28:26;;;;;;;;;4.00;4.00;;;;;16.25;55.07;100236.06;146622;576;46020;-71
2023/01/17 09:31:25;;;;;;;;;6.75;5.75;;;;;16.30;55.88;100229.19;146619;593;46919;-70
2023/01/17 09:34:32;;;;;;;;;5.00;4.50;;;;;13.95;55.18;99815.81;146623;633;46010;-70
2023/01/17 09:37:26;;;;;;;;;5.00;3.00;;;;;16.38;55.77;100241.56;146618;580;46016;-71
2023/01/17 09:40:34;;;;;;;;;6.00;5.00;;;;;16.46;55.90;100241.72;146623;619;46020;-71
2023/01/17 09:44:00;;;;;;;;;5.00;4.33;;;;;16.46;56.04;100225.16;146616;672;47016;-70
2023/01/17 09:47:01;;;;;;;;;5.33;4.00;;;;;16.47;55.26;100227.78;146623;585;46010;-71
2023/01/17 09:50:12;;;;;;;;;6.67;6.00;;;;;16.50;56.33;100230.44;146621;597;46012;-71
2023/01/17 09:53:12;;;;;;;;;5.00;5.00;;;;;16.47;54.70;100224.28;146622;564;46020;-71
2023/01/17 09:56:30;;;;;;;;;1.33;0.00;;;;;16.47;55.59;100214.69;146620;614;46016;-73
2023/01/17 09:59:42;;;;;;;;;4.00;3.33;;;;;16.48;55.15;100218.19;146622;626;46010;-71
2023/01/17 10:03:12;;;;;;;;;12.00;8.50;;;;;16.51;56.21;100221.78;146617;640;46016;-76
2023/01/17 10:06:57;;;;;;;;;5.50;5.25;;;;;14.50;55.10;99870.09;146621;611;46020;-72
2023/01/17 10:10:35;;;;;;;;;9.00;7.75;;;;;16.51;55.82;100219.16;146619;710;46016;-71
2023/01/17 10:14:13;;;;;;;;;4.00;2.00;;;;;16.52;55.86;100225.25;146622;609;46020;-71
2023/01/17 10:17:42;;;;;;;;;5.67;5.00;;;;;14.16;55.49;99810.22;146622;632;46012;-72
2023/01/17 10:21:24;;;;;;;;;10.00;8.67;;;;;14.17;56.36;99810.25;146621;610;46020;-72
2023/01/17 10:24:58;;;;;;;;;;;;;;;;;;;;;
2023/01/17 10:28:10;;;;;;;;;13.25;10.00;;;;;16.57;56.04;100203.56;146621;643;46020;-71
2023/01/17 10:31:38;;;;;;;;;10.50;8.75;;;;;16.63;56.23;100198.44;146613;625;47922;-71
2023/01/17 10:34:49;;;;;;;;;11.00;8.00;;;;;16.70;55.93;100199.44;146621;573;46020;-71
2023/01/17 10:37:48;;;;;;;;;18.75;15.75;;;;;16.80;55.37;100195.28;146621;641;45017;-72
2023/01/17 10:41:10;;;;;;;;;8.00;6.00;;;;;16.94;55.05;100188.50;146626;620;45020;-69
2023/01/17 10:44:57;;;;;;;;;9.00;4.67;;;;;14.72;53.91;99790.56;146621;628;48012;-72
2023/01/17 10:47:58;;;;;;;;;7.33;5.33;;;;;17.05;53.38;100178.22;146621;618;46020;-73
2023/01/17 10:51:04;;;;;;;;;9.33;7.33;;;;;17.07;52.82;100173.88;146621;591;46012;-73
2023/01/17 10:54:50;;;;;;;;;18.50;17.00;;;;;13.82;53.31;99607.09;146622;620;46021;-72
2023/01/17 10:57:50;;;;;;;;;8.25;8.25;;;;;17.04;53.57;100151.16;146621;623;46012;-73
2023/01/17 11:01:16;;;;;;;;;26.50;21.50;;;;;17.06;53.08;100146.81;146620;595;46020;-72
2023/01/17 11:04:53;;;;;;;;;35.00;30.50;;;;;14.76;54.55;99776.72;146617;595;46016;-72
2023/01/17 11:08:12;;;;;;;;;64.50;49.50;;;;;14.73;54.81;99753.16;146622;569;46010;-72
2023/01/17 11:11:13;;;;;;;;;23.50;16.75;;;;;17.03;53.71;100154.63;146614;665;46012;-71
2023/01/17 11:14:25;;;;;;;;;5.00;4.67;;;;;16.99;53.99;100142.34;146623;622;46010;-72
2023/01/17 11:17:31;;;;;;;;;7.50;6.50;;;;;16.98;53.49;100150.19;146619;570;46016;-73
2023/01/17 11:20:46;;;;;;;;;14.25;13.50;;;;;16.98;53.37;100148.44;146621;655;46020;-70
2023/01/17 11:24:00;;;;;;;;;13.25;13.00;;;;;16.95;53.16;100139.66;146618;612;46017;-73
2023/01/17 11:26:58;;;;;;;;;21.25;17.75;;;;;16.92;53.91;100142.22;146622;570;46010;-73
2023/01/17 11:29:50;;;;;;;;;32.50;27.75;;;;;16.90;54.43;100136.97;146617;615;46035;-72
2023/01/17 11:33:21;;;;;;;;;29.25;24.50;;;;;14.58;54.09;99708.56;146620;571;46020;-74
2023/01/17 11:36:42;;;;;;;;;14.50;12.00;;;;;14.30;54.92;99663.66;146619;622;46012;-73
2023/01/17 11:39:35;;;;;;;;;9.75;9.75;;;;;16.89;54.62;100113.38;146619;572;46021;-74
2023/01/17 11:42:47;;;;;;;;;7.00;6.00;;;;;16.88;54.59;100122.94;146621;604;46014;-73
2023/01/17 11:46:03;;;;;;;;;11.25;11.00;;;;;16.90;55.28;100122.97;146623;569;46010;-74
2023/01/17 11:49:27;;;;;;;;;8.00;8.00;;;;;16.93;53.90;100115.19;146623;575;45016;-76
2023/01/17 11:52:37;;;;;;;;;7.33;6.67;;;;;16.95;54.86;100103.00;146624;596;46021;-73
2023/01/17 11:55:31;;;;;;;;;7.33;7.00;;;;;16.95;53.93;100108.25;146619;569;46016;-73
2023/01/17 11:58:30;;;;;;;;;4.00;4.00;;;;;16.98;53.42;100126.62;146622;653;46020;-74
2023/01/17 12:02:15;;;;;;;;;2.00;2.00;;;;;17.01;53.57;100111.81;146620;624;46919;-75
2023/01/17 12:05:50;;;;;;;;;7.00;5.00;;;;;17.12;54.95;100101.50;146622;610;46022;-74
2023/01/17 12:09:08;;;;;;;;;8.50;7.50;;;;;17.21;53.27;100100.75;146618;574;46016;-73
2023/01/17 12:16:34;;;;;;;;;15.75;14.75;;;;;17.29;52.89;100102.63;146619;574;46012;-72
2023/01/17 12:20:16;;;;;;;;;;;;;;;;;;;;;
2023/01/17 12:23:42;;;;;;;;;5.33;2.00;;;;;17.37;52.41;100094.87;146618;575;46017;-74
2023/01/17 12:27:22;;;;;;;;;12.75;11.75;;;;;17.43;53.37;100100.19;146621;646;46020;-74
2023/01/17 12:30:54;;;;;;;;;32.25;28.00;;;;;17.47;52.72;100093.25;146617;551;46017;-74
2023/01/17 12:34:31;;;;;;;;;;;;;;;;;;;;;
2023/01/17 12:37:43;;;;;;;;;1.33;0.67;;;;;17.56;50.84;100080.25;146611;564;47921;-74
2023/01/17 12:41:02;;;;;;;;;2.00;1.00;;;;;17.63;51.44;100086.44;146624;569;46010;-75
2023/01/17 12:44:18;;;;;;;;;1.00;0.00;;;;;17.65;51.53;100072.50;146620;605;46013;-74
2023/01/17 12:47:42;;;;;;;;;;;;;;;;;;;;;
2023/01/17 12:51:22;;;;;;;;;3.00;1.00;;;;;17.74;51.73;100075.25;146623;573;46012;-74
2023/01/17 12:54:45;;;;;;;;;8.00;7.00;;;;;17.73;51.51;100070.00;146617;586;48010;-74
2023/01/17 12:58:09;;;;;;;;;5.67;3.33;;;;;15.38;51.83;99666.37;146622;671;46014;-73
2023/01/17 13:01:56;;;;;;;;;20.75;18.75;;;;;15.53;52.21;99665.72;146620;635;46012;-74
2023/01/17 13:05:23;;;;;;;;;53.00;41.25;;;;;17.82;51.49;100063.97;146617;572;47016;-73
2023/01/17 13:09:03;;;;;;;;;24.50;22.25;;;;;17.82;50.65;100051.78;146624;614;46010;-75
2023/01/17 13:12:35;;;;;;;;;8.00;7.00;;;;;15.68;51.96;99686.88;146617;583;46014;-75
2023/01/17 13:15:38;;;;;;;;;12.25;12.25;;;;;17.88;50.76;100059.72;146623;712;46010;-72
2023/01/17 13:18:34;;;;;;;;;14.75;12.00;;;;;17.90;50.17;100052.72;146617;566;46922;-73
2023/01/17 13:21:38;;;;;;;;;35.25;29.75;;;;;17.92;50.95;100053.63;146622;588;46031;-75
2023/01/17 13:25:23;;;;;;;;;18.75;16.25;;;;;15.91;51.91;99670.63;146617;577;46031;-76
2023/01/17 13:28:59;;;;;;;;;12.50;11.50;;;;;18.36;51.21;100047.94;146626;679;46010;-75
2023/01/17 13:32:43;;;;;;;;;14.00;13.25;;;;;18.44;51.03;100056.75;146615;575;46016;-73
2023/01/17 13:36:18;;;;;;;;;20.00;16.50;;;;;16.33;51.01;99679.84;146616;572;46020;-74
2023/01/17 13:40:05;;;;;;;;;16.00;13.00;;;;;16.49;50.06;99680.91;146618;564;46016;-73
2023/01/17 13:43:35;;;;;;;;;9.67;7.00;;;;;18.59;50.02;100047.22;146619;565;46021;-73
2023/01/17 13:47:06;;;;;;;;;9.67;8.33;;;;;18.46;50.57;100052.38;146619;570;46014;-69
2023/01/17 13:50:01;;;;;;;;;3.67;3.33;;;;;18.37;50.65;100051.44;146624;612;46020;-74
2023/01/17 13:54:03;;;;;;;;;5.67;5.00;;;;;16.19;53.13;99674.44;146620;606;46017;-70
2023/01/17 13:57:53;;;;;;;;;7.50;7.50;;;;;16.17;50.51;99661.38;146623;670;46010;-72
2023/01/17 14:01:01;;;;;;;;;9.67;9.33;;;;;18.26;51.00;100069.72;146620;596;46016;-70
2023/01/17 14:04:26;;;;;;;;;2.33;2.00;;;;;15.84;52.06;99653.97;146623;600;46020;-71
2023/01/17 14:07:46;;;;;;;;;4.33;1.67;;;;;15.84;52.65;99682.75;146621;624;46012;-71
2023/01/17 14:11:12;;;;;;;;;2.00;2.00;;;;;18.00;52.01;100069.44;146623;581;45032;-71
2023/01/17 14:14:45;;;;;;;;;4.33;2.00;;;;;15.69;51.19;99675.56;146617;651;46017;-74
2023/01/17 14:17:54;;;;;;;;;3.67;2.67;;;;;17.90;51.26;100050.09;146623;572;46020;-71
2023/01/17 14:21:09;;;;;;;;;11.25;10.25;;;;;17.88;51.42;100061.44;146618;696;46014;-71
2023/01/17 14:24:31;;;;;;;;;5.00;4.00;;;;;17.85;52.47;100057.06;146622;615;46010;-71
2023/01/17 14:27:33;;;;;;;;;6.00;5.00;;;;;17.80;52.67;100060.47;146620;578;46012;-69
2023/01/17 14:30:47;;;;;;;;;6.50;5.00;;;;;17.76;53.59;100063.03;146623;728;46012;-72
2023/01/17 14:34:14;;;;;;;;;12.25;10.50;;;;;15.51;54.71;99672.66;146619;624;46016;-72
2023/01/17 14:38:07;;;;;;;;;;;;;;;;;;;;;
2023/01/17 14:41:27;;;;;;;;;6.00;4.00;;;;;17.69;54.13;100062.94;146619;637;46016;-72
2023/01/17 14:44:31;;;;;;;;;19.75;17.00;;;;;17.64;54.34;100068.13;146622;581;46021;-71
2023/01/17 14:47:55;;;;;;;;;8.33;7.67;;;;;17.59;54.46;100069.81;146620;621;46012;-72
2023/01/17 14:51:17;;;;;;;;;17.00;14.50;;;;;15.23;55.26;99667.03;146618;574;46021;-71
2023/01/17 14:54:24;;;;;;;;;9.33;8.00;;;;;17.53;54.14;100073.22;146619;574;46016;-71
2023/01/17 14:57:53;;;;;;;;;36.25;30.25;;;;;15.09;54.12;99659.84;146623;706;46010;-71
2023/01/17 15:00:48;;;;;;;;;12.75;11.25;;;;;17.48;53.04;100074.06;146614;700;46016;-70
2023/01/17 15:04:25;;;;;;;;;35.00;29.00;;;;;15.18;53.72;99700.03;146620;615;46020;-71
2023/01/17 15:07:31;;;;;;;;;15.00;14.00;;;;;17.41;54.04;100090.53;146614;561;46019;-71
2023/01/17 15:10:48;;;;;;;;;17.75;16.50;;;;;17.35;54.72;100078.22;146621;591;46020;-71
2023/01/17 15:14:09;;;;;;;;;23.25;17.50;;;;;17.28;54.33;100076.41;146621;590;46014;-69
2023/01/17 15:17:27;;;;;;;;;26.50;22.50;;;;;17.25;54.89;100081.59;146622;607;46022;-70
2023/01/17 15:20:25;;;;;;;;;22.75;14.50;;;;;17.24;54.51;100077.22;146618;654;46017;-69
2023/01/17 15:23:36;;;;;;;;;6.67;4.00;;;;;17.21;54.36;100080.66;146625;611;45020;-72
2023/01/17 15:26:43;;;;;;;;;57.50;43.50;;;;;17.21;55.42;100071.94;146619;589;46016;-72
2023/01/17 15:29:41;;;;;;;;;7.25;5.50;;;;;17.22;55.26;100073.69;146619;566;46021;-71
2023/01/17 15:32:40;;;;;;;;;4.67;4.00;;;;;17.20;53.10;100067.56;146620;645;46016;-71
2023/01/17 15:35:46;;;;;;;;;10.67;6.00;;;;;17.23;51.36;100078.09;146623;598;46021;-71
2023/01/17 15:39:04;;;;;;;;;;;;;;;;;;;;;
2023/01/17 15:42:03;;;;;;;;;2.50;1.00;;;;;17.30;50.97;100074.69;146620;570;46020;-71
2023/01/17 15:45:05;;;;;;;;;3.25;3.00;;;;;17.36;52.25;100073.91;146617;618;46016;-71
2023/01/17 15:48:46;;;;;;;;;11.75;9.25;;;;;14.75;51.79;99618.41;146619;581;46020;-71
2023/01/17 15:51:50;;;;;;;;;6.00;5.00;;;;;17.37;51.21;100055.56;146620;582;46012;-71
2023/01/17 15:55:26;;;;;;;;;3.00;2.00;;;;;17.38;50.77;100064.28;146626;605;46010;-71
2023/01/17 15:58:38;;;;;;;;;6.33;3.33;;;;;17.32;46.66;100038.91;146622;602;46013;-70
2023/01/17 16:01:38;;;;;;;;;4.33;3.00;;;;;17.37;48.33;100047.69;146623;613;46020;-72
2023/01/17 16:04:50;;;;;;;;;4.33;4.00;;;;;15.18;50.61;99663.47;146617;617;46017;-71
2023/01/17 16:07:51;;;;;;;;;2.00;2.00;;;;;17.43;49.45;100032.03;146620;647;46020;-70
2023/01/17 16:10:47;;;;;;;;;5.00;3.00;;;;;17.45;47.60;100053.03;146618;731;46016;-71
2023/01/17 16:13:49;;;;;;;;;2.33;2.33;;;;;17.46;50.30;100054.78;146623;610;46011;-71
2023/01/17 16:17:07;;;;;;;;;4.00;3.25;;;;;14.99;48.56;99628.37;146620;620;46014;-71
2023/01/17 16:20:00;;;;;;;;;5.00;4.67;;;;;17.41;49.87;100062.59;146625;687;46011;-71
2023/01/17 16:22:53;;;;;;;;;6.00;4.33;;;;;17.36;49.86;100069.53;146622;684;46012;-72